createdAt,value
2022-08-08T00:00:53.279Z,101845.97
2022-08-08T00:02:58.921Z,101840.84
2022-08-08T00:05:44.105Z,101847.34
2022-08-08T00:08:27.315Z,101850.25
2022-08-08T00:11:00.617Z,101847.56
2022-08-08T00:14:14.804Z,101847.47
2022-08-08T00:16:41.138Z,101844.88
2022-08-08T00:19:17.187Z,101843.34
2022-08-08T00:21:50.756Z,101850.53
2022-08-08T00:24:24.038Z,101850.63
2022-08-08T00:27:02.519Z,101843.50
2022-08-08T00:29:45.635Z,101844.44
2022-08-08T00:32:35.566Z,101845.44
2022-08-08T00:35:34.349Z,101852.69
2022-08-08T00:38:32.082Z,101852.81
2022-08-08T00:42:19.745Z,101847.63
2022-08-08T00:45:33.295Z,101844.16
2022-08-08T00:48:40.178Z,101840.75
2022-08-08T00:51:38.248Z,101840.00
2022-08-08T00:54:45.868Z,101837.59
2022-08-08T00:57:57.116Z,101841.19
2022-08-08T01:00:30.398Z,101842.22
2022-08-08T01:04:00.837Z,101845.84
2022-08-08T01:07:13.953Z,101834.47
2022-08-08T01:10:29.623Z,101845.53
2022-08-08T01:13:38.051Z,101853.63
2022-08-08T01:16:45.995Z,101851.06
2022-08-08T01:20:17.734Z,101845.69
2022-08-08T01:24:06.347Z,101853.81
2022-08-08T01:26:49.137Z,101851.31
2022-08-08T01:29:59.864Z,101853.25
2022-08-08T01:33:27.732Z,101849.31
2022-08-08T01:36:44.126Z,101852.97
2022-08-08T01:39:34.662Z,101851.69
2022-08-08T01:42:14.973Z,101855.94
2022-08-08T01:45:09.848Z,101859.78
2022-08-08T01:48:16.899Z,101862.09
2022-08-08T01:51:31.581Z,101862.00
2022-08-08T01:55:16.902Z,101858.59
2022-08-08T01:57:17.607Z,101858.50
2022-08-08T02:00:05.337Z,101863.81
2022-08-08T02:03:56.918Z,101856.97
2022-08-08T02:06:32.711Z,101854.97
2022-08-08T02:10:01.259Z,101853.31
2022-08-08T02:12:21.697Z,101853.25
2022-08-08T02:14:59.613Z,101852.44
2022-08-08T02:17:43.689Z,101858.66
2022-08-08T02:21:00.850Z,101864.94
2022-08-08T02:23:23.071Z,101866.72
2022-08-08T02:26:10.185Z,101867.75
2022-08-08T02:28:58.192Z,101868.91
2022-08-08T02:32:00.551Z,101870.66
2022-08-08T02:35:07.547Z,101874.25
2022-08-08T02:38:12.718Z,101874.38
2022-08-08T02:40:50.092Z,101874.25
2022-08-08T02:44:35.561Z,101882.56
2022-08-08T02:47:12.678Z,101877.25
2022-08-08T02:50:39.905Z,101880.91
2022-08-08T02:53:24.105Z,101877.47
2022-08-08T02:56:26.501Z,101879.38
2022-08-08T02:59:57.497Z,101874.16
2022-08-08T03:02:57.185Z,101877.00
2022-08-08T03:06:01.940Z,101875.25
2022-08-08T03:09:14.860Z,101877.03
2022-08-08T03:12:36.270Z,101880.66
2022-08-08T03:16:05.574Z,101877.28
2022-08-08T03:18:46.628Z,101878.84
2022-08-08T03:21:16.268Z,101872.66
2022-08-08T03:23:47.233Z,101865.50
2022-08-08T03:26:42.338Z,101870.84
2022-08-08T03:29:16.843Z,101874.44
2022-08-08T03:32:09.036Z,101874.50
2022-08-08T03:34:40.350Z,101873.69
2022-08-08T03:38:00.138Z,101880.84
2022-08-08T03:40:03.992Z,101881.75
2022-08-08T03:42:34.064Z,101878.22
2022-08-08T03:46:07.530Z,101887.13
2022-08-08T03:47:59.412Z,101888.06
2022-08-08T03:50:28.397Z,101890.72
2022-08-08T03:52:57.489Z,101898.09
2022-08-08T03:55:55.711Z,101910.63
2022-08-08T03:58:35.298Z,101908.00
2022-08-08T04:01:24.742Z,101904.44
2022-08-08T04:04:01.959Z,101910.59
2022-08-08T04:06:40.407Z,101909.72
2022-08-08T04:09:11.789Z,101914.34
2022-08-08T04:11:58.456Z,101910.09
2022-08-08T04:14:37.263Z,101921.53
2022-08-08T04:17:22.362Z,101913.66
2022-08-08T04:19:57.254Z,101917.09
2022-08-08T04:22:29.629Z,101918.84
2022-08-08T04:24:59.055Z,101926.88
2022-08-08T04:28:01.614Z,101929.50
2022-08-08T04:30:19.716Z,101922.41
2022-08-08T04:32:52.288Z,101929.44
2022-08-08T04:35:24.471Z,101919.81
2022-08-08T04:37:54.342Z,101921.44
2022-08-08T04:40:27.288Z,101926.88
2022-08-08T04:43:01.134Z,101932.94
2022-08-08T04:45:50.936Z,101930.09
2022-08-08T04:48:22.104Z,101930.88
2022-08-08T04:50:51.009Z,101929.00
2022-08-08T04:54:30.250Z,101925.44
2022-08-08T04:56:16.837Z,101925.56
2022-08-08T04:58:48.464Z,101931.63
2022-08-08T05:01:19.471Z,101933.31
2022-08-08T05:04:09.034Z,101926.13
2022-08-08T05:06:42.347Z,101929.75
2022-08-08T05:09:11.323Z,101934.94
2022-08-08T05:11:42.442Z,101931.34
2022-08-08T05:14:20.604Z,101926.81
2022-08-08T05:17:00.592Z,101934.72
2022-08-08T05:20:09.732Z,101929.34
2022-08-08T05:22:29.037Z,101931.91
2022-08-08T05:24:58.941Z,101927.34
2022-08-08T05:27:26.900Z,101929.00
2022-08-08T05:30:03.254Z,101927.09
2022-08-08T05:32:41.686Z,101926.88
2022-08-08T05:35:14.855Z,101939.25
2022-08-08T05:37:53.278Z,101934.72
2022-08-08T05:40:34.266Z,101937.28
2022-08-08T05:43:38.512Z,101940.75
2022-08-08T05:46:04.299Z,101935.25
2022-08-08T05:48:38.948Z,101937.78
2022-08-08T05:51:15.762Z,101942.28
2022-08-08T05:53:56.165Z,101939.47
2022-08-08T05:56:47.622Z,101944.81
2022-08-08T06:00:00.731Z,101944.81
2022-08-08T06:02:43.439Z,101948.19
2022-08-08T06:05:24.496Z,101950.69
2022-08-08T06:08:10.198Z,101943.53
2022-08-08T06:10:50.025Z,101946.00
2022-08-08T06:13:22.815Z,101951.28
2022-08-08T06:15:55.004Z,101948.44
2022-08-08T06:18:44.728Z,101944.69
2022-08-08T06:21:32.782Z,101942.88
2022-08-08T06:24:03.429Z,101956.97
2022-08-08T06:26:45.277Z,101948.81
2022-08-08T06:29:59.920Z,101956.66
2022-08-08T06:32:19.517Z,101944.03
2022-08-08T06:35:11.956Z,101951.88
2022-08-08T06:37:56.193Z,101961.63
2022-08-08T06:40:36.955Z,101962.34
2022-08-08T06:43:12.310Z,101965.84
2022-08-08T06:45:54.129Z,101964.88
2022-08-08T06:48:26.733Z,101970.06
2022-08-08T06:50:58.878Z,101978.75
2022-08-08T06:53:39.554Z,101975.81
2022-08-08T06:56:11.449Z,101974.66
2022-08-08T06:58:44.685Z,101977.25
2022-08-08T07:02:17.043Z,101974.34
2022-08-08T07:04:37.757Z,101985.78
2022-08-08T07:07:11.065Z,101983.78
2022-08-08T07:09:56.605Z,101990.66
2022-08-08T07:12:39.984Z,101990.41
2022-08-08T07:15:15.424Z,101990.19
2022-08-08T07:18:37.180Z,101988.09
2022-08-08T07:21:02.239Z,101981.72
2022-08-08T07:24:01.999Z,101992.16
2022-08-08T07:26:38.952Z,101989.31
2022-08-08T07:29:11.385Z,101987.50
2022-08-08T07:31:49.637Z,101989.91
2022-08-08T07:34:20.377Z,101999.66
2022-08-08T07:36:56.546Z,102004.72
2022-08-08T07:39:29.102Z,102002.00
2022-08-08T07:42:04.969Z,102001.16
2022-08-08T07:44:37.221Z,102005.50
2022-08-08T07:47:08.231Z,102008.81
2022-08-08T07:49:40.007Z,101998.72
2022-08-08T07:52:13.307Z,102003.06
2022-08-08T07:55:00.072Z,102003.78
2022-08-08T07:57:39.987Z,102003.59
2022-08-08T08:00:16.775Z,102001.53
2022-08-08T08:03:23.802Z,102003.78
2022-08-08T08:06:00.057Z,102008.81
2022-08-08T08:08:41.896Z,102012.13
2022-08-08T08:11:23.427Z,102009.38
2022-08-08T08:14:07.659Z,102009.16
2022-08-08T08:16:41.603Z,102005.16
2022-08-08T08:19:18.051Z,102006.56
2022-08-08T08:21:57.262Z,101999.16
2022-08-08T08:24:47.790Z,102003.22
2022-08-08T08:27:22.091Z,101999.28
2022-08-08T08:29:54.125Z,102000.78
2022-08-08T08:32:36.218Z,102001.28
2022-08-08T08:35:10.957Z,102010.34
2022-08-08T08:38:13.005Z,101999.91
2022-08-08T08:40:34.681Z,102002.09
2022-08-08T08:43:08.971Z,101998.28
2022-08-08T08:45:44.369Z,101995.75
2022-08-08T08:48:19.249Z,101998.28
2022-08-08T08:50:52.356Z,101995.84
2022-08-08T08:53:55.116Z,101996.31
2022-08-08T08:56:18.243Z,102000.75
2022-08-08T08:58:56.882Z,101996.31
2022-08-08T09:01:34.746Z,101994.03
2022-08-08T09:04:10.092Z,101987.84
2022-08-08T09:06:59.257Z,102000.09
2022-08-08T09:09:39.929Z,101990.00
2022-08-08T09:12:22.595Z,101992.41
2022-08-08T09:14:55.411Z,101986.63
2022-08-08T09:17:41.044Z,101989.97
2022-08-08T09:22:01.479Z,101993.19
2022-08-08T09:23:05.201Z,101991.28
2022-08-08T09:25:54.769Z,101985.75
2022-08-08T09:28:39.253Z,101997.13
2022-08-08T09:31:17.557Z,101988.69
2022-08-08T09:34:30.203Z,101989.41
2022-08-08T09:36:51.715Z,101989.81
2022-08-08T09:39:46.975Z,101988.31
2022-08-08T09:42:21.663Z,101985.31
2022-08-08T09:45:07.943Z,101989.81
2022-08-08T09:48:04.582Z,101990.84
2022-08-08T09:50:28.325Z,101981.81
2022-08-08T09:53:05.547Z,101983.28
2022-08-08T09:56:04.144Z,101986.47
2022-08-08T09:58:41.401Z,101985.88
2022-08-08T10:01:58.280Z,101990.44
2022-08-08T10:04:08.868Z,101974.00
2022-08-08T10:06:45.166Z,101984.06
2022-08-08T10:09:13.456Z,101979.41
2022-08-08T10:12:26.350Z,101978.00
2022-08-08T10:14:38.695Z,101978.38
2022-08-08T10:18:06.377Z,101972.72
2022-08-08T10:20:04.175Z,101967.16
2022-08-08T10:22:35.880Z,101963.34
2022-08-08T10:25:07.168Z,101966.84
2022-08-08T10:27:44.597Z,101966.06
2022-08-08T10:30:15.825Z,101958.53
2022-08-08T10:33:02.141Z,101953.34
2022-08-08T10:36:07.601Z,101954.03
2022-08-08T10:38:21.640Z,101956.47
2022-08-08T10:40:53.871Z,101953.50
2022-08-08T10:43:23.327Z,101955.44
2022-08-08T10:45:56.302Z,101952.22
2022-08-08T10:48:37.403Z,101950.97
2022-08-08T10:51:24.133Z,101948.84
2022-08-08T10:53:57.541Z,101951.50
2022-08-08T10:56:32.334Z,101948.81
2022-08-08T10:59:01.514Z,101944.94
2022-08-08T11:01:33.315Z,101940.03
2022-08-08T11:04:04.556Z,101936.25
2022-08-08T11:06:35.781Z,101932.94
2022-08-08T11:09:09.667Z,101940.50
2022-08-08T11:12:04.871Z,101936.75
2022-08-08T11:14:33.066Z,101939.63
2022-08-08T11:17:01.628Z,101935.34
2022-08-08T11:19:31.690Z,101943.66
2022-08-08T11:22:04.373Z,101938.84
2022-08-08T11:24:35.826Z,101935.53
2022-08-08T11:27:19.133Z,101934.88
2022-08-08T11:30:04.332Z,101931.59
2022-08-08T11:32:40.177Z,101933.19
2022-08-08T11:35:27.759Z,101935.50
2022-08-08T11:38:39.129Z,101935.38
2022-08-08T11:40:52.635Z,101932.28
2022-08-08T11:43:23.808Z,101930.66
2022-08-08T11:46:11.878Z,101933.09
2022-08-08T11:48:45.039Z,101927.53
2022-08-08T11:51:30.632Z,101924.03
2022-08-08T11:54:09.884Z,101929.38
2022-08-08T11:56:58.151Z,101918.22
2022-08-08T12:00:00.613Z,101921.69
2022-08-08T12:02:41.734Z,101914.97
2022-08-08T12:05:13.002Z,101915.19
2022-08-08T12:07:51.197Z,101919.56
2022-08-08T12:10:23.617Z,101918.34
2022-08-08T12:13:00.825Z,101912.56
2022-08-08T12:15:30.596Z,101915.66
2022-08-08T12:18:18.025Z,101912.81
2022-08-08T12:20:50.664Z,101907.38
2022-08-08T12:23:43.309Z,101905.16
2022-08-08T12:26:37.620Z,101911.19
2022-08-08T12:29:21.649Z,101910.44
2022-08-08T12:32:00.655Z,101907.53
2022-08-08T12:34:39.037Z,101907.63
2022-08-08T12:37:08.817Z,101912.34
2022-08-08T12:40:01.513Z,101912.66
2022-08-08T12:42:33.501Z,101910.31
2022-08-08T12:45:53.672Z,101913.31
2022-08-08T12:48:10.334Z,101900.78
2022-08-08T12:50:50.306Z,101909.03
2022-08-08T12:53:19.660Z,101905.94
2022-08-08T12:56:19.486Z,101907.91
2022-08-08T12:58:54.242Z,101905.13
2022-08-08T13:01:36.496Z,101902.69
2022-08-08T13:04:18.368Z,101904.59
2022-08-08T13:07:00.904Z,101899.06
2022-08-08T13:09:43.187Z,101901.25
2022-08-08T13:12:30.186Z,101904.28
2022-08-08T13:15:03.751Z,101895.22
2022-08-08T13:18:08.940Z,101896.34
2022-08-08T13:20:21.966Z,101897.00
2022-08-08T13:22:51.589Z,101888.69
2022-08-08T13:25:27.542Z,101885.47
2022-08-08T13:27:56.816Z,101898.50
2022-08-08T13:30:30.077Z,101887.41
2022-08-08T13:33:01.341Z,101891.94
2022-08-08T13:35:40.350Z,101896.69
2022-08-08T13:38:13.038Z,101894.50
2022-08-08T13:40:44.662Z,101897.16
2022-08-08T13:43:13.797Z,101894.53
2022-08-08T13:45:47.373Z,101894.34
2022-08-08T13:48:17.193Z,101887.47
2022-08-08T13:50:53.888Z,101890.19
2022-08-08T13:53:34.195Z,101892.31
2022-08-08T13:56:11.280Z,101887.06
2022-08-08T13:58:57.598Z,101889.22
2022-08-08T14:01:32.977Z,101888.06
2022-08-08T14:04:23.359Z,101894.16
2022-08-08T14:07:00.859Z,101882.31
2022-08-08T14:10:02.390Z,101895.06
2022-08-08T14:12:28.458Z,101892.44
2022-08-08T14:14:56.847Z,101884.25
2022-08-08T14:17:58.445Z,101879.91
2022-08-08T14:20:15.757Z,101871.28
2022-08-08T14:23:10.443Z,101873.09
2022-08-08T14:25:54.034Z,101875.53
2022-08-08T14:28:29.188Z,101872.66
2022-08-08T14:31:09.220Z,101883.16
2022-08-08T14:33:39.140Z,101876.00
2022-08-08T14:36:09.662Z,101887.94
2022-08-08T14:38:52.045Z,101879.03
2022-08-08T14:41:44.211Z,101874.25
2022-08-08T14:44:13.235Z,101870.88
2022-08-08T14:46:47.319Z,101882.28
2022-08-08T14:49:33.528Z,101870.06
2022-08-08T14:52:09.210Z,101878.16
2022-08-08T14:54:47.289Z,101873.81
2022-08-08T14:57:17.108Z,101868.13
2022-08-08T14:59:55.993Z,101869.81
2022-08-08T15:02:30.579Z,101877.19
2022-08-08T15:05:10.580Z,101869.34
2022-08-08T15:07:41.279Z,101865.25
2022-08-08T15:10:11.600Z,101863.97
2022-08-08T15:12:41.739Z,101869.91
2022-08-08T15:15:10.681Z,101870.00
2022-08-08T15:17:41.845Z,101863.09
2022-08-08T15:20:14.013Z,101867.97
2022-08-08T15:22:44.558Z,101860.38
2022-08-08T15:25:18.087Z,101861.53
2022-08-08T15:28:32.717Z,101871.84
2022-08-08T15:30:45.920Z,101866.16
2022-08-08T15:33:20.915Z,101873.94
2022-08-08T15:36:04.910Z,101886.75
2022-08-08T15:38:34.018Z,101872.91
2022-08-08T15:41:01.897Z,101865.34
2022-08-08T15:43:35.797Z,101874.66
2022-08-08T15:46:04.647Z,101871.34
2022-08-08T15:48:32.508Z,101867.28
2022-08-08T15:51:06.293Z,101871.09
2022-08-08T15:53:49.115Z,101872.03
2022-08-08T15:56:19.857Z,101860.19
2022-08-08T15:58:49.225Z,101875.78
2022-08-08T16:01:21.179Z,101872.13
2022-08-08T16:03:51.696Z,101868.66
2022-08-08T16:06:27.725Z,101867.69
2022-08-08T16:12:59.940Z,101872.91
2022-08-08T16:13:08.468Z,101873.66
2022-08-08T16:14:36.459Z,101869.81
2022-08-08T16:17:06.200Z,101875.41
2022-08-08T16:19:57.150Z,101870.44
2022-08-08T16:22:30.090Z,101873.94
2022-08-08T16:25:05.914Z,101877.66
2022-08-08T16:27:35.323Z,101875.91
2022-08-08T16:30:13.463Z,101873.09
2022-08-08T16:32:42.863Z,101875.09
2022-08-08T16:35:11.050Z,101872.03
2022-08-08T16:37:42.948Z,101876.66
2022-08-08T16:40:17.538Z,101870.31
2022-08-08T16:42:51.776Z,101865.22
2022-08-08T16:46:38.514Z,101865.31
2022-08-08T16:48:10.774Z,101873.22
2022-08-08T16:50:41.795Z,101867.50
2022-08-08T16:55:06.465Z,101873.47
2022-08-08T16:56:03.307Z,101867.13
2022-08-08T16:58:36.724Z,101868.75
2022-08-08T17:01:06.444Z,101867.56
2022-08-08T17:03:58.826Z,101860.69
2022-08-08T17:06:36.300Z,101866.66
2022-08-08T17:09:06.458Z,101863.81
2022-08-08T17:11:48.035Z,101868.81
2022-08-08T17:14:18.655Z,101870.84
2022-08-08T17:16:57.499Z,101873.72
2022-08-08T17:19:27.155Z,101873.06
2022-08-08T17:21:55.610Z,101873.81
2022-08-08T17:24:27.769Z,101881.72
2022-08-08T17:26:57.921Z,101881.44
2022-08-08T17:29:26.852Z,101887.22
2022-08-08T17:31:54.777Z,101890.44
2022-08-08T17:34:48.383Z,101892.16
2022-08-08T17:37:13.931Z,101898.16
2022-08-08T17:40:04.297Z,101901.50
2022-08-08T17:42:31.053Z,101898.47
2022-08-08T17:44:58.985Z,101903.72
2022-08-08T17:47:37.684Z,101902.13
2022-08-08T17:50:10.044Z,101909.91
2022-08-08T17:52:43.128Z,101912.31
2022-08-08T17:56:04.713Z,101909.91
2022-08-08T17:58:02.208Z,101918.06
2022-08-08T18:00:31.394Z,101921.31
2022-08-08T18:03:08.406Z,101918.34
2022-08-08T18:05:48.841Z,101924.63
2022-08-08T18:08:24.586Z,101917.75
2022-08-08T18:11:08.095Z,101924.13
2022-08-08T18:13:41.935Z,101923.88
2022-08-08T18:16:11.325Z,101937.06
2022-08-08T18:18:42.933Z,101933.34
2022-08-08T18:21:35.159Z,101936.69
2022-08-08T18:24:03.107Z,101938.81
2022-08-08T18:26:30.982Z,101927.94
2022-08-08T18:29:02.784Z,101936.06
2022-08-08T18:31:33.909Z,101940.28
2022-08-08T18:34:25.028Z,101943.88
2022-08-08T18:36:50.260Z,101950.53
2022-08-08T18:39:28.496Z,101952.84
2022-08-08T18:42:02.993Z,101949.53
2022-08-08T18:44:36.010Z,101952.41
2022-08-08T18:47:04.785Z,101957.84
2022-08-08T18:49:57.631Z,101953.72
2022-08-08T18:52:23.193Z,101966.66
2022-08-08T18:55:00.699Z,101968.31
2022-08-08T18:57:41.222Z,101969.13
2022-08-08T19:00:16.971Z,101975.97
2022-08-08T19:02:57.184Z,101976.91
2022-08-08T19:05:34.467Z,101982.06
2022-08-08T19:08:28.156Z,101984.56
2022-08-08T19:10:58.575Z,101984.03
2022-08-08T19:13:53.172Z,101996.03
2022-08-08T19:16:19.325Z,102002.00
2022-08-08T19:18:52.896Z,102009.56
2022-08-08T19:21:30.858Z,102017.88
2022-08-08T19:24:01.292Z,102021.91
2022-08-08T19:26:34.421Z,102026.56
2022-08-08T19:29:02.433Z,102027.59
2022-08-08T19:31:35.370Z,102036.16
2022-08-08T19:34:30.118Z,102049.31
2022-08-08T19:36:53.672Z,102041.59
2022-08-08T19:39:23.578Z,102042.94
2022-08-08T19:41:52.019Z,102045.34
2022-08-08T19:44:42.309Z,102044.94
2022-08-08T19:47:09.086Z,102051.66
2022-08-08T19:49:43.585Z,102054.59
2022-08-08T19:52:35.317Z,102054.75
2022-08-08T19:55:09.195Z,102059.56
2022-08-08T19:57:37.932Z,102053.44
2022-08-08T20:00:11.272Z,102060.28
2022-08-08T20:02:58.071Z,102065.13
2022-08-08T20:06:15.203Z,102067.72
2022-08-08T20:08:31.061Z,102059.75
2022-08-08T20:11:00.867Z,102059.66
2022-08-08T20:14:12.258Z,102060.53
2022-08-08T20:16:17.302Z,102067.53
2022-08-08T20:18:53.189Z,102071.31
2022-08-08T20:21:23.225Z,102070.31
2022-08-08T20:23:57.453Z,102073.06
2022-08-08T20:26:27.553Z,102077.69
2022-08-08T20:28:59.083Z,102079.63
2022-08-08T20:31:28.131Z,102083.25
2022-08-08T20:34:28.918Z,102090.44
2022-08-08T20:37:02.608Z,102087.66
2022-08-08T20:39:33.704Z,102094.44
2022-08-08T20:42:08.990Z,102090.19
2022-08-08T20:44:37.720Z,102094.97
2022-08-08T20:47:22.865Z,102092.84
2022-08-08T20:49:54.421Z,102097.34
2022-08-08T20:52:27.512Z,102098.53
2022-08-08T20:54:55.633Z,102103.53
2022-08-08T20:57:23.526Z,102103.03
2022-08-08T20:59:55.784Z,102102.91
2022-08-08T21:02:25.761Z,102106.78
2022-08-08T21:04:57.303Z,102104.66
2022-08-08T21:07:46.940Z,102100.22
2022-08-08T21:10:20.757Z,102103.84
2022-08-08T21:12:54.059Z,102102.78
2022-08-08T21:16:05.030Z,102108.84
2022-08-08T21:18:11.886Z,102108.50
2022-08-08T21:20:42.063Z,102102.41
2022-08-08T21:23:13.202Z,102105.16
2022-08-08T21:25:48.813Z,102105.03
2022-08-08T21:28:33.412Z,102100.38
2022-08-08T21:31:05.810Z,102100.38
2022-08-08T21:33:50.270Z,102103.22
2022-08-08T21:36:21.950Z,102106.09
2022-08-08T21:38:57.310Z,102106.34
2022-08-08T21:41:38.584Z,102112.38
2022-08-08T21:44:14.586Z,102111.84
2022-08-08T21:48:01.155Z,102103.72
2022-08-08T21:49:33.216Z,102109.16
2022-08-08T21:54:34.119Z,102110.06
2022-08-08T21:54:58.177Z,102109.44
2022-08-08T21:57:42.187Z,102107.22
2022-08-08T22:00:14.422Z,102114.28
2022-08-08T22:02:44.231Z,102117.03
2022-08-08T22:05:15.014Z,102122.13
2022-08-08T22:07:48.125Z,102117.50
2022-08-08T22:10:28.779Z,102118.63
2022-08-08T22:13:17.307Z,102118.50
2022-08-08T22:15:59.392Z,102129.50
2022-08-08T22:18:30.594Z,102124.22
2022-08-08T22:20:59.512Z,102125.28
2022-08-08T22:23:34.109Z,102118.41
2022-08-08T22:26:27.663Z,102121.28
2022-08-08T22:29:05.206Z,102116.88
2022-08-08T22:31:38.630Z,102129.50
2022-08-08T22:34:12.891Z,102129.78
2022-08-08T22:36:43.085Z,102130.97
2022-08-08T22:39:19.421Z,102130.97
2022-08-08T22:41:49.275Z,102125.03
2022-08-08T22:44:17.510Z,102139.47
2022-08-08T22:46:45.852Z,102144.13
2022-08-08T22:49:17.953Z,102148.59
2022-08-08T22:51:48.336Z,102144.94
2022-08-08T22:54:33.440Z,102147.56
2022-08-08T22:57:08.642Z,102142.38
2022-08-08T22:59:52.960Z,102142.66
2022-08-08T23:02:28.820Z,102146.28
2022-08-08T23:04:57.839Z,102142.88
2022-08-08T23:07:50.941Z,102150.00
2022-08-08T23:10:19.459Z,102146.72
2022-08-08T23:12:51.768Z,102143.13
2022-08-08T23:16:38.579Z,102151.28
2022-08-08T23:18:11.918Z,102152.31
2022-08-08T23:20:40.587Z,102148.09
2022-08-08T23:23:08.521Z,102150.91
2022-08-08T23:25:47.860Z,102156.22
2022-08-08T23:28:18.858Z,102154.59
2022-08-08T23:30:47.376Z,102163.63
2022-08-08T23:33:35.876Z,102163.69
2022-08-08T23:36:08.092Z,102168.19
2022-08-08T23:38:44.360Z,102176.56
2022-08-08T23:41:23.189Z,102174.69
2022-08-08T23:43:54.287Z,102176.75
2022-08-08T23:49:08.146Z,102179.44
2022-08-08T23:49:18.073Z,102177.81
2022-08-08T23:52:06.306Z,102185.88
2022-08-08T23:54:42.087Z,102169.97
2022-08-08T23:57:27.796Z,102169.31
